Terminal Aerodrome Forecast
Issued by NWS

Home | Current Version | Previous Version | Text Only | Print | Product List | Glossary On
Versions: 1 2 3 4 5 6 7 8 9 10 11 12 13 14 15 16 17 18 19 20 21 22 23 24 25 26 27 28 29 30 31 32
000
FTUS45 KGJT 302330
TAFTEX
TAF
KTEX 302330Z 3100/3124 27008G15KT P6SM VCSH FEW080 BKN120
     FM310300 14005KT P6SM VCSH SCT070 BKN100
     FM311200 00000KT P6SM SCT100 BKN150
     FM311700 27008G15KT P6SM VCTS SCT080CB BKN120=

USA.gov is the U.S. government's official web portal to all federal, state and local government web resources and services.